Time;durP1;ratioP1;P1;durP2;ratioP2;P2;SDS_P1;SDS_P2;PMS_P1;PMS_P2;Temp;Humidity;BMP_temperature;BMP_pressure;BME280_temperature;BME280_humidity;BME280_pressure;Samples;Min_cycle;Max_cycle;Signal;HPM_P1;HPM_P2
2021/11/06 14:19:01;;;;;;;;;4.00;3.00;;;;;;;;5055851;27;1539004;-71
2021/11/06 14:21:35;;;;;;;;;1.50;1.25;;;;;;;;5099027;27;112448;-72
2021/11/06 14:24:08;;;;;;;;;3.00;1.75;;;;;;;;5098336;27;112385;-74
2021/11/06 14:26:41;;;;;;;;;2.50;2.50;;;;;;;;5099913;27;112277;-73
2021/11/06 14:29:12;;;;;;;;;3.50;3.00;;;;;;;;5079850;27;114263;-73
2021/11/06 14:31:42;;;;;;;;;3.00;3.00;;;;;;;;5092056;27;112193;-72
2021/11/06 14:34:28;;;;;;;;;2.25;2.25;;;;;;;;5100275;27;111995;-73
2021/11/06 14:36:54;;;;;;;;;3.25;1.75;;;;;;;;5088749;27;112985;-73
2021/11/06 14:39:19;;;;;;;;;2.00;2.00;;;;;;;;5081935;27;112781;-73
2021/11/06 14:41:56;;;;;;;;;3.50;2.75;;;;;;;;5059208;27;114024;-74
2021/11/06 14:44:23;;;;;;;;;4.00;3.00;;;;;;;;5078208;27;111922;-77
2021/11/06 14:46:50;;;;;;;;;2.00;2.00;;;;;;;;5083929;27;112885;-74
2021/11/06 14:49:17;;;;;;;;;2.25;2.25;;;;;;;;5060177;27;115773;-75
2021/11/06 14:51:51;;;;;;;;;3.00;3.00;;;;;;;;5095745;27;112303;-76
2021/11/06 14:54:17;;;;;;;;;3.00;3.00;;;;;;;;5080713;27;113539;-73
2021/11/06 14:56:42;;;;;;;;;2.00;2.00;;;;;;;;5097517;27;112442;-73
2021/11/06 14:59:08;;;;;;;;;0.25;0.25;;;;;;;;5098521;27;112070;-73
2021/11/06 15:01:49;;;;;;;;;3.00;3.00;;;;;;;;5087584;27;112541;-73
2021/11/06 15:04:15;;;;;;;;;4.00;3.00;;;;;;;;5083887;27;112912;-73
2021/11/06 15:06:40;;;;;;;;;2.25;2.25;;;;;;;;5096030;27;112170;-71
2021/11/06 15:09:05;;;;;;;;;3.25;2.25;;;;;;;;5091449;27;112399;-73
2021/11/06 15:11:31;;;;;;;;;3.75;1.00;;;;;;;;5090320;27;112028;-72
2021/11/06 15:13:56;;;;;;;;;2.00;2.00;;;;;;;;5078314;27;112191;-73
2021/11/06 15:16:30;;;;;;;;;2.25;2.25;;;;;;;;5077024;27;112772;-73
2021/11/06 15:18:55;;;;;;;;;3.75;3.25;;;;;;;;5078738;27;112071;-72
2021/11/06 15:21:21;;;;;;;;;2.00;2.00;;;;;;;;5078629;27;112282;-72
2021/11/06 15:23:46;;;;;;;;;3.25;3.00;;;;;;;;5087823;27;112417;-72
2021/11/06 15:26:11;;;;;;;;;2.00;2.00;;;;;;;;5087384;27;111882;-72
2021/11/06 15:28:37;;;;;;;;;1.50;1.50;;;;;;;;5088911;27;115547;-72
2021/11/06 15:31:03;;;;;;;;;2.25;2.25;;;;;;;;5071025;27;112159;-74
2021/11/06 15:33:28;;;;;;;;;3.75;3.00;;;;;;;;5064273;27;112207;-74
2021/11/06 15:35:53;;;;;;;;;2.50;2.50;;;;;;;;5069712;27;112886;-73
2021/11/06 15:38:19;;;;;;;;;2.00;2.00;;;;;;;;5073559;27;112103;-73
2021/11/06 15:40:44;;;;;;;;;3.25;2.75;;;;;;;;5072780;27;112392;-72
2021/11/06 15:43:09;;;;;;;;;2.00;2.00;;;;;;;;5071754;27;112368;-73
2021/11/06 15:45:35;;;;;;;;;5.00;3.00;;;;;;;;5078016;27;113334;-73
2021/11/06 15:48:01;;;;;;;;;2.00;2.00;;;;;;;;5054443;27;115823;-72
2021/11/06 15:50:27;;;;;;;;;2.00;2.00;;;;;;;;5074613;27;111846;-73
2021/11/06 15:52:54;;;;;;;;;3.00;3.00;;;;;;;;5081296;27;113523;-73
2021/11/06 15:55:19;;;;;;;;;3.75;2.75;;;;;;;;5083308;27;112842;-72
2021/11/06 15:57:49;;;;;;;;;2.50;2.50;;;;;;;;5084036;27;111915;-72
2021/11/06 16:00:15;;;;;;;;;6.75;3.00;;;;;;;;5063863;27;111936;-73
2021/11/06 16:02:40;;;;;;;;;4.00;4.00;;;;;;;;5062319;27;112491;-73
2021/11/06 16:05:07;;;;;;;;;5.50;4.00;;;;;;;;5063568;27;111889;-72
2021/11/06 16:07:32;;;;;;;;;3.00;3.00;;;;;;;;5065662;27;113003;-72
2021/11/06 16:09:58;;;;;;;;;5.50;4.00;;;;;;;;5063981;27;112151;-72
2021/11/06 16:12:23;;;;;;;;;3.00;3.00;;;;;;;;5028507;27;114886;-70
2021/11/06 16:14:48;;;;;;;;;3.00;3.00;;;;;;;;5062719;27;112212;-73
2021/11/06 16:17:15;;;;;;;;;4.00;3.00;;;;;;;;5063628;27;112094;-72
2021/11/06 16:19:41;;;;;;;;;3.75;3.75;;;;;;;;5063443;27;113041;-70
2021/11/06 16:22:08;;;;;;;;;2.75;2.75;;;;;;;;5061938;27;113413;-70
2021/11/06 16:24:34;;;;;;;;;4.00;4.00;;;;;;;;5059168;27;111991;-70
2021/11/06 16:27:00;;;;;;;;;4.50;4.50;;;;;;;;5059850;27;112920;-70
2021/11/06 16:29:25;;;;;;;;;2.50;2.50;;;;;;;;5065018;27;112089;-70
2021/11/06 16:31:51;;;;;;;;;6.25;4.00;;;;;;;;5062262;27;112294;-72
2021/11/06 16:34:17;;;;;;;;;3.00;3.00;;;;;;;;5060822;27;112917;-72
2021/11/06 16:36:42;;;;;;;;;3.50;3.50;;;;;;;;5061841;27;112821;-72
2021/11/06 16:39:10;;;;;;;;;5.00;4.00;;;;;;;;5062043;27;112683;-74
2021/11/06 16:41:35;;;;;;;;;6.50;5.25;;;;;;;;5059481;27;112903;-72
2021/11/06 16:44:01;;;;;;;;;7.00;3.75;;;;;;;;5068552;27;112068;-71
2021/11/06 16:46:26;;;;;;;;;3.00;3.00;;;;;;;;5082070;27;112207;-71
2021/11/06 16:48:52;;;;;;;;;4.25;4.25;;;;;;;;5072021;27;112380;-72
2021/11/06 16:51:19;;;;;;;;;2.00;2.00;;;;;;;;5062675;27;114587;-70
2021/11/06 16:53:45;;;;;;;;;1.00;1.00;;;;;;;;5079795;27;116288;-73
2021/11/06 16:56:10;;;;;;;;;0.75;0.75;;;;;;;;5083235;27;111889;-73
2021/11/06 16:58:36;;;;;;;;;1.75;1.75;;;;;;;;5083233;27;113526;-74
2021/11/06 17:01:01;;;;;;;;;1.00;1.00;;;;;;;;5081644;27;112325;-74
2021/11/06 17:03:26;;;;;;;;;1.50;1.50;;;;;;;;5083175;27;111988;-75
2021/11/06 17:05:58;;;;;;;;;4.00;2.00;;;;;;;;5082556;27;111939;-72
2021/11/06 17:10:51;;;;;;;;;1.25;1.25;;;;;;;;5086918;27;111793;-72
2021/11/06 17:13:17;;;;;;;;;5.25;2.00;;;;;;;;5081863;27;114219;-72
2021/11/06 17:15:42;;;;;;;;;2.50;2.00;;;;;;;;5083649;27;113226;-72
2021/11/06 17:18:08;;;;;;;;;3.50;2.00;;;;;;;;5082873;27;112260;-71
2021/11/06 17:20:34;;;;;;;;;1.25;1.25;;;;;;;;5082125;27;114098;-70
2021/11/06 17:22:59;;;;;;;;;2.00;1.00;;;;;;;;5083173;27;112903;-71
2021/11/06 17:25:25;;;;;;;;;5.00;4.00;;;;;;;;5083340;27;112279;-72
2021/11/06 17:27:51;;;;;;;;;1.00;1.00;;;;;;;;5081034;27;112453;-72
2021/11/06 17:30:18;;;;;;;;;5.75;5.00;;;;;;;;5081231;27;112116;-73
2021/11/06 17:32:43;;;;;;;;;1.00;1.00;;;;;;;;5084009;27;112319;-73
2021/11/06 17:35:09;;;;;;;;;1.00;1.00;;;;;;;;5079686;27;111941;-75
2021/11/06 17:37:35;;;;;;;;;4.00;1.00;;;;;;;;5082893;27;111941;-73
2021/11/06 17:40:01;;;;;;;;;1.00;1.00;;;;;;;;5081533;27;112317;-76
2021/11/06 17:42:27;;;;;;;;;3.50;3.25;;;;;;;;5082742;27;112265;-74
2021/11/06 17:44:52;;;;;;;;;3.75;2.00;;;;;;;;5082355;27;112209;-73
2021/11/06 17:47:18;;;;;;;;;4.50;2.00;;;;;;;;5080878;27;112364;-74
2021/11/06 17:49:55;;;;;;;;;2.00;2.00;;;;;;;;5063458;27;113036;-73
2021/11/06 17:52:29;;;;;;;;;2.00;2.00;;;;;;;;5082589;27;112434;-74
2021/11/06 17:54:54;;;;;;;;;1.75;1.00;;;;;;;;5084658;27;113758;-77
2021/11/06 17:57:19;;;;;;;;;4.00;3.00;;;;;;;;5083051;27;112201;-77
2021/11/06 17:59:45;;;;;;;;;4.00;4.00;;;;;;;;5081470;27;112389;-80
2021/11/06 18:02:11;;;;;;;;;5.50;3.00;;;;;;;;5082997;27;111974;-77
2021/11/06 18:04:36;;;;;;;;;6.25;5.75;;;;;;;;5082412;27;112055;-74
2021/11/06 18:07:02;;;;;;;;;2.00;2.00;;;;;;;;5081490;27;112396;-78
2021/11/06 18:09:28;;;;;;;;;1.75;1.50;;;;;;;;5082707;27;112223;-79
2021/11/06 18:11:54;;;;;;;;;2.50;2.00;;;;;;;;5082111;27;112965;-76
2021/11/06 18:14:19;;;;;;;;;3.00;3.00;;;;;;;;5080930;27;112322;-78
2021/11/06 18:16:45;;;;;;;;;3.00;3.00;;;;;;;;5086213;27;112510;-79
2021/11/06 18:19:10;;;;;;;;;5.25;2.75;;;;;;;;5080753;27;113210;-76
2021/11/06 18:21:38;;;;;;;;;2.25;2.25;;;;;;;;5081683;27;111896;-74
2021/11/06 18:24:04;;;;;;;;;2.50;2.50;;;;;;;;5063135;27;114474;-75
2021/11/06 18:26:29;;;;;;;;;1.00;1.00;;;;;;;;5080451;27;112558;-78
2021/11/06 18:28:54;;;;;;;;;5.00;5.00;;;;;;;;5081333;27;112023;-72
2021/11/06 18:31:20;;;;;;;;;3.00;3.00;;;;;;;;5081086;27;111968;-76
2021/11/06 18:33:45;;;;;;;;;4.75;2.00;;;;;;;;5068682;27;112626;-78
2021/11/06 18:36:10;;;;;;;;;2.00;2.00;;;;;;;;5064376;27;111832;-75
2021/11/06 18:38:36;;;;;;;;;3.00;1.75;;;;;;;;5059324;27;112168;-76
2021/11/06 18:41:05;;;;;;;;;3.00;3.00;;;;;;;;5041283;27;111846;-77
2021/11/06 18:43:30;;;;;;;;;3.25;2.00;;;;;;;;5060251;27;114007;-78
2021/11/06 18:45:57;;;;;;;;;5.50;2.00;;;;;;;;5059101;27;113593;-74
2021/11/06 18:48:24;;;;;;;;;3.75;3.75;;;;;;;;5059507;27;112438;-76
2021/11/06 18:50:49;;;;;;;;;3.50;3.50;;;;;;;;5061083;27;111821;-75
2021/11/06 18:53:15;;;;;;;;;8.25;6.75;;;;;;;;5059289;27;112497;-75
2021/11/06 18:55:40;;;;;;;;;7.75;7.00;;;;;;;;5060451;27;112101;-77
2021/11/06 18:58:06;;;;;;;;;1.00;1.00;;;;;;;;5043930;27;115342;-76
2021/11/06 19:00:32;;;;;;;;;2.00;2.00;;;;;;;;5060316;27;112108;-77
2021/11/06 19:03:01;;;;;;;;;2.00;1.00;;;;;;;;5063533;27;113514;-79
2021/11/06 19:05:27;;;;;;;;;5.75;3.75;;;;;;;;5082982;27;114305;-76
2021/11/06 19:07:53;;;;;;;;;2.00;1.50;;;;;;;;5084098;27;111981;-77
2021/11/06 19:10:19;;;;;;;;;2.00;2.00;;;;;;;;5084654;27;113074;-78
2021/11/06 19:12:45;;;;;;;;;3.50;2.00;;;;;;;;5083205;27;112878;-75
2021/11/06 19:15:11;;;;;;;;;2.00;2.00;;;;;;;;5085061;27;111734;-75
2021/11/06 19:17:36;;;;;;;;;0.00;0.00;;;;;;;;5083387;27;113693;-74
2021/11/06 19:20:04;;;;;;;;;2.75;2.75;;;;;;;;5087143;27;112321;-75
2021/11/06 19:22:29;;;;;;;;;2.25;2.25;;;;;;;;5084361;27;114237;-75
2021/11/06 19:24:54;;;;;;;;;3.25;2.00;;;;;;;;5083257;27;112287;-79
2021/11/06 19:28:02;;;;;;;;;2.00;2.00;;;;;;;;5066249;27;112313;-76
2021/11/06 19:30:10;;;;;;;;;2.00;2.00;;;;;;;;5077675;27;113118;-78
2021/11/06 19:32:37;;;;;;;;;3.75;1.00;;;;;;;;5083008;27;112360;-78
2021/11/06 19:35:03;;;;;;;;;1.00;1.00;;;;;;;;5083768;27;111920;-74
2021/11/06 19:37:28;;;;;;;;;2.00;2.00;;;;;;;;5083666;27;112399;-74
2021/11/06 19:39:53;;;;;;;;;2.00;1.00;;;;;;;;5083013;27;112570;-74
2021/11/06 19:42:19;;;;;;;;;1.25;1.25;;;;;;;;5087428;27;112673;-74
2021/11/06 19:44:45;;;;;;;;;1.00;1.00;;;;;;;;5064518;27;115433;-76
2021/11/06 19:47:11;;;;;;;;;2.00;2.00;;;;;;;;5083915;27;112352;-75
2021/11/06 19:49:37;;;;;;;;;2.00;2.00;;;;;;;;5084020;27;111992;-76
2021/11/06 19:52:04;;;;;;;;;3.00;2.00;;;;;;;;5064074;27;114200;-75
2021/11/06 19:54:30;;;;;;;;;6.00;2.00;;;;;;;;5084013;27;111994;-76
2021/11/06 19:56:55;;;;;;;;;3.50;2.00;;;;;;;;5084524;27;112304;-77
2021/11/06 19:59:21;;;;;;;;;1.00;1.00;;;;;;;;5082907;27;112495;-77
2021/11/06 20:01:46;;;;;;;;;3.00;2.00;;;;;;;;5083691;27;111940;-73
2021/11/06 20:04:14;;;;;;;;;3.00;3.00;;;;;;;;5086632;27;113149;-73
2021/11/06 20:06:40;;;;;;;;;1.75;1.75;;;;;;;;5082945;27;112585;-73
2021/11/06 20:09:06;;;;;;;;;2.00;2.00;;;;;;;;5084154;27;113092;-73
2021/11/06 20:11:35;;;;;;;;;1.50;1.25;;;;;;;;5082020;27;112310;-74
2021/11/06 20:14:06;;;;;;;;;2.00;1.50;;;;;;;;5084135;27;111898;-74
2021/11/06 20:16:32;;;;;;;;;5.50;2.00;;;;;;;;5083002;27;113133;-75
2021/11/06 20:18:57;;;;;;;;;1.00;1.00;;;;;;;;5081681;27;113769;-76
2021/11/06 20:21:22;;;;;;;;;2.00;2.00;;;;;;;;5083647;27;112217;-76
2021/11/06 20:23:48;;;;;;;;;2.00;2.00;;;;;;;;5064388;27;115122;-76
2021/11/06 20:26:13;;;;;;;;;2.00;1.00;;;;;;;;5086002;27;112477;-77
2021/11/06 20:28:38;;;;;;;;;2.75;2.75;;;;;;;;5082957;27;112554;-76
2021/11/06 20:31:04;;;;;;;;;3.25;1.75;;;;;;;;5081793;27;112433;-77
2021/11/06 20:33:29;;;;;;;;;2.00;2.00;;;;;;;;5071770;27;112143;-76
2021/11/06 20:35:54;;;;;;;;;2.25;1.75;;;;;;;;5070485;27;112131;-76
2021/11/06 20:38:20;;;;;;;;;2.25;2.00;;;;;;;;5071574;27;112913;-77
2021/11/06 20:40:45;;;;;;;;;11.00;11.00;;;;;;;;5083557;27;111932;-76
2021/11/06 20:43:10;;;;;;;;;3.00;3.00;;;;;;;;5082926;27;112518;-79
2021/11/06 20:45:36;;;;;;;;;1.00;1.00;;;;;;;;5075696;27;112363;-79
2021/11/06 20:48:01;;;;;;;;;4.25;2.00;;;;;;;;5065560;27;112512;-74
2021/11/06 20:52:11;;;;;;;;;2.00;2.00;;;;;;;;5066525;27;1458539;-71
2021/11/06 20:54:37;;;;;;;;;2.00;2.00;;;;;;;;5099318;27;112380;-69
2021/11/06 20:57:02;;;;;;;;;1.25;1.25;;;;;;;;5100271;27;112332;-71
2021/11/06 20:59:28;;;;;;;;;1.00;1.00;;;;;;;;5100182;27;111921;-71
2021/11/06 21:01:53;;;;;;;;;3.00;1.50;;;;;;;;5098702;27;112326;-73
2021/11/06 21:04:20;;;;;;;;;0.25;0.25;;;;;;;;5099544;27;112561;-72
2021/11/06 21:06:45;;;;;;;;;2.75;2.00;;;;;;;;5080552;27;113882;-70
2021/11/06 21:09:20;;;;;;;;;9.00;9.00;;;;;;;;5098515;27;112274;-70
2021/11/06 21:19:52;;;;;;;;;1.00;1.00;;;;;;;;5095873;27;112258;-84
2021/11/06 21:22:18;;;;;;;;;1.25;1.25;;;;;;;;5098529;27;112329;-81
2021/11/06 21:24:44;;;;;;;;;1.00;1.00;;;;;;;;5098965;27;111997;-80
2021/11/06 21:27:09;;;;;;;;;4.00;2.00;;;;;;;;5098846;27;112579;-81
2021/11/06 21:29:36;;;;;;;;;2.00;1.00;;;;;;;;5078768;27;115797;-80
2021/11/06 21:32:02;;;;;;;;;1.00;1.00;;;;;;;;5099616;27;112084;-81
2021/11/06 21:34:34;;;;;;;;;3.00;3.00;;;;;;;;5101802;27;112064;-81
2021/11/06 21:37:03;;;;;;;;;1.25;1.25;;;;;;;;5098612;27;112630;-80
2021/11/06 21:39:36;;;;;;;;;1.00;1.00;;;;;;;;5099169;27;111978;-80
2021/11/06 21:42:08;;;;;;;;;2.00;2.00;;;;;;;;5097722;27;113750;-76
2021/11/06 21:44:33;;;;;;;;;2.25;2.25;;;;;;;;5098397;27;111802;-77
2021/11/06 21:47:01;;;;;;;;;1.00;1.00;;;;;;;;5098805;27;112759;-75
2021/11/06 21:49:27;;;;;;;;;1.00;1.00;;;;;;;;5079194;27;114773;-76
2021/11/06 21:51:53;;;;;;;;;2.00;2.00;;;;;;;;5098235;27;112635;-75
2021/11/06 21:54:18;;;;;;;;;2.75;1.50;;;;;;;;5099026;27;112246;-75
2021/11/06 21:56:47;;;;;;;;;3.00;2.00;;;;;;;;5099148;27;113241;-79
2021/11/06 21:59:14;;;;;;;;;2.00;2.00;;;;;;;;5098571;27;112203;-72
2021/11/06 22:01:39;;;;;;;;;1.50;1.50;;;;;;;;5092537;27;112634;-72
2021/11/06 22:04:05;;;;;;;;;3.00;2.00;;;;;;;;5064670;27;112866;-80
2021/11/06 22:06:31;;;;;;;;;1.00;1.00;;;;;;;;5085103;27;111875;-76
2021/11/06 22:08:56;;;;;;;;;0.50;0.50;;;;;;;;5082378;27;112481;-73
2021/11/06 22:11:22;;;;;;;;;1.00;1.00;;;;;;;;5084611;27;111780;-74
2021/11/06 22:13:50;;;;;;;;;2.50;2.00;;;;;;;;5084567;27;111905;-75
2021/11/06 22:16:16;;;;;;;;;2.00;2.00;;;;;;;;5083190;27;113638;-75
2021/11/06 22:18:42;;;;;;;;;2.00;2.00;;;;;;;;5087996;27;111848;-75
2021/11/06 22:21:07;;;;;;;;;2.00;2.00;;;;;;;;5064122;27;115611;-74
2021/11/06 22:23:34;;;;;;;;;2.00;1.00;;;;;;;;5083880;27;112249;-74
2021/11/06 22:25:59;;;;;;;;;2.50;2.50;;;;;;;;5085151;27;112578;-73
2021/11/06 22:28:25;;;;;;;;;3.00;2.00;;;;;;;;5083486;27;112457;-74
2021/11/06 22:30:50;;;;;;;;;2.50;2.00;;;;;;;;5084597;27;112063;-74
2021/11/06 22:33:16;;;;;;;;;2.25;0.00;;;;;;;;5084041;27;112412;-74
2021/11/06 22:35:43;;;;;;;;;2.00;2.00;;;;;;;;5083331;27;112732;-74
2021/11/06 22:38:10;;;;;;;;;1.75;1.75;;;;;;;;5065844;27;112513;-75
2021/11/06 22:40:35;;;;;;;;;3.75;2.50;;;;;;;;5086802;27;114556;-74
2021/11/06 22:43:01;;;;;;;;;3.00;2.00;;;;;;;;5084520;27;111927;-73
2021/11/06 22:45:26;;;;;;;;;0.00;0.00;;;;;;;;5084442;27;111839;-74
2021/11/06 22:47:53;;;;;;;;;1.00;1.00;;;;;;;;5083535;27;112715;-72
2021/11/06 22:50:19;;;;;;;;;1.00;1.00;;;;;;;;5082782;27;112412;-72
2021/11/06 22:52:45;;;;;;;;;0.00;0.00;;;;;;;;5084817;27;111946;-72
2021/11/06 22:55:11;;;;;;;;;0.00;0.00;;;;;;;;5083309;27;112946;-72
2021/11/06 22:57:39;;;;;;;;;1.25;1.00;;;;;;;;5084025;27;111869;-71
2021/11/06 23:00:14;;;;;;;;;0.00;0.00;;;;;;;;5083277;27;112383;-71
2021/11/06 23:02:40;;;;;;;;;0.75;0.00;;;;;;;;5085997;27;111738;-72
2021/11/06 23:05:11;;;;;;;;;0.00;0.00;;;;;;;;5083702;27;113361;-71
2021/11/06 23:07:38;;;;;;;;;1.00;1.00;;;;;;;;5075594;27;112435;-71
2021/11/06 23:10:04;;;;;;;;;1.00;1.00;;;;;;;;5078985;27;111831;-71
2021/11/06 23:12:31;;;;;;;;;4.00;2.00;;;;;;;;5084355;27;111831;-71
2021/11/06 23:14:56;;;;;;;;;2.00;0.50;;;;;;;;5079922;27;112539;-70
2021/11/06 23:17:22;;;;;;;;;1.00;1.00;;;;;;;;5060731;27;113064;-72
2021/11/06 23:19:47;;;;;;;;;2.00;0.50;;;;;;;;5081154;27;112339;-71
2021/11/06 23:22:12;;;;;;;;;4.25;1.75;;;;;;;;5084680;27;112672;-71
2021/11/06 23:24:38;;;;;;;;;1.50;1.50;;;;;;;;5065077;27;113366;-71
2021/11/06 23:27:05;;;;;;;;;1.00;1.00;;;;;;;;5081936;27;112354;-71
2021/11/06 23:29:30;;;;;;;;;0.50;0.50;;;;;;;;5064092;27;111808;-75
2021/11/06 23:31:58;;;;;;;;;1.00;1.00;;;;;;;;5082170;27;112099;-74
2021/11/06 23:34:25;;;;;;;;;1.00;1.00;;;;;;;;5075270;27;114218;-74
2021/11/06 23:36:51;;;;;;;;;3.50;1.00;;;;;;;;5082545;27;112093;-72
2021/11/06 23:39:16;;;;;;;;;1.50;1.50;;;;;;;;5080802;27;112397;-74
2021/11/06 23:41:42;;;;;;;;;1.25;0.50;;;;;;;;5080380;27;112585;-74
2021/11/06 23:44:07;;;;;;;;;2.25;1.00;;;;;;;;5087044;27;112021;-73
2021/11/06 23:46:33;;;;;;;;;1.75;0.00;;;;;;;;5082066;27;113086;-74
2021/11/06 23:49:01;;;;;;;;;0.50;0.50;;;;;;;;5081295;27;112554;-73
2021/11/06 23:51:46;;;;;;;;;3.50;1.00;;;;;;;;5081981;27;112972;-74
2021/11/06 23:54:26;;;;;;;;;1.75;1.75;;;;;;;;5081560;27;113036;-74
